sensor_id;sensor_type;location;lat;lon;timestamp;temperature;humidity
40822;DHT22;26542;50.836;5.356;2023-02-22T00:00:18;6.50;99.90
40822;DHT22;26542;50.836;5.356;2023-02-22T00:02:54;6.50;99.90
40822;DHT22;26542;50.836;5.356;2023-02-22T00:05:26;6.60;99.90
40822;DHT22;26542;50.836;5.356;2023-02-22T00:07:53;6.60;99.90
40822;DHT22;26542;50.836;5.356;2023-02-22T00:10:22;6.60;99.90
40822;DHT22;26542;50.836;5.356;2023-02-22T00:12:50;6.60;99.90
40822;DHT22;26542;50.836;5.356;2023-02-22T00:15:19;6.70;99.90
40822;DHT22;26542;50.836;5.356;2023-02-22T00:17:45;6.60;99.90
40822;DHT22;26542;50.836;5.356;2023-02-22T00:20:12;6.70;99.90
40822;DHT22;26542;50.836;5.356;2023-02-22T00:22:40;6.70;99.90
40822;DHT22;26542;50.836;5.356;2023-02-22T00:25:07;6.60;99.90
40822;DHT22;26542;50.836;5.356;2023-02-22T00:27:33;6.60;99.90
40822;DHT22;26542;50.836;5.356;2023-02-22T00:29:59;6.60;99.90
40822;DHT22;26542;50.836;5.356;2023-02-22T00:32:25;6.50;99.90
40822;DHT22;26542;50.836;5.356;2023-02-22T00:34:52;6.60;99.90
40822;DHT22;26542;50.836;5.356;2023-02-22T00:37:18;6.70;99.90
40822;DHT22;26542;50.836;5.356;2023-02-22T00:39:48;6.70;99.90
40822;DHT22;26542;50.836;5.356;2023-02-22T00:42:15;6.70;99.90
40822;DHT22;26542;50.836;5.356;2023-02-22T00:44:41;6.70;99.90
40822;DHT22;26542;50.836;5.356;2023-02-22T00:47:08;6.70;99.90
40822;DHT22;26542;50.836;5.356;2023-02-22T00:49:34;6.70;99.90
40822;DHT22;26542;50.836;5.356;2023-02-22T00:52:00;6.70;99.90
40822;DHT22;26542;50.836;5.356;2023-02-22T00:54:26;6.70;99.90
40822;DHT22;26542;50.836;5.356;2023-02-22T00:56:52;6.70;99.90
40822;DHT22;26542;50.836;5.356;2023-02-22T00:59:18;6.70;99.90
40822;DHT22;26542;50.836;5.356;2023-02-22T01:01:43;6.80;99.90
40822;DHT22;26542;50.836;5.356;2023-02-22T01:04:09;6.80;99.90
40822;DHT22;26542;50.836;5.356;2023-02-22T01:06:35;6.80;99.90
40822;DHT22;26542;50.836;5.356;2023-02-22T01:09:02;6.80;99.90
40822;DHT22;26542;50.836;5.356;2023-02-22T01:11:28;6.70;99.90
40822;DHT22;26542;50.836;5.356;2023-02-22T01:13:55;6.70;99.90
40822;DHT22;26542;50.836;5.356;2023-02-22T01:16:22;6.70;99.90
40822;DHT22;26542;50.836;5.356;2023-02-22T01:18:48;6.70;99.90
40822;DHT22;26542;50.836;5.356;2023-02-22T01:21:14;6.70;99.90
40822;DHT22;26542;50.836;5.356;2023-02-22T01:23:39;6.70;99.90
40822;DHT22;26542;50.836;5.356;2023-02-22T01:26:05;6.60;99.90
40822;DHT22;26542;50.836;5.356;2023-02-22T01:28:32;6.60;99.90
40822;DHT22;26542;50.836;5.356;2023-02-22T01:30:57;6.60;99.90
40822;DHT22;26542;50.836;5.356;2023-02-22T01:33:23;6.70;99.90
40822;DHT22;26542;50.836;5.356;2023-02-22T01:35:50;6.70;99.90
40822;DHT22;26542;50.836;5.356;2023-02-22T01:38:16;6.70;99.90
40822;DHT22;26542;50.836;5.356;2023-02-22T01:40:48;6.70;99.90
40822;DHT22;26542;50.836;5.356;2023-02-22T01:43:29;6.70;99.90
40822;DHT22;26542;50.836;5.356;2023-02-22T01:46:03;6.70;99.90
40822;DHT22;26542;50.836;5.356;2023-02-22T01:51:23;6.70;99.90
40822;DHT22;26542;50.836;5.356;2023-02-22T01:53:57;6.60;99.90
40822;DHT22;26542;50.836;5.356;2023-02-22T01:56:29;6.50;99.90
40822;DHT22;26542;50.836;5.356;2023-02-22T01:59:01;6.50;99.90
40822;DHT22;26542;50.836;5.356;2023-02-22T02:01:28;6.50;99.90
40822;DHT22;26542;50.836;5.356;2023-02-22T02:03:56;6.50;99.90
40822;DHT22;26542;50.836;5.356;2023-02-22T02:06:25;6.40;99.90
40822;DHT22;26542;50.836;5.356;2023-02-22T02:11:25;6.50;99.90
40822;DHT22;26542;50.836;5.356;2023-02-22T02:13:54;6.40;99.90
40822;DHT22;26542;50.836;5.356;2023-02-22T02:16:26;6.40;99.90
40822;DHT22;26542;50.836;5.356;2023-02-22T02:18:55;6.40;99.90
40822;DHT22;26542;50.836;5.356;2023-02-22T02:32:53;6.20;99.90
40822;DHT22;26542;50.836;5.356;2023-02-22T02:37:55;6.30;99.90
40822;DHT22;26542;50.836;5.356;2023-02-22T02:40:29;6.20;99.90
40822;DHT22;26542;50.836;5.356;2023-02-22T02:48:26;6.00;99.90
40822;DHT22;26542;50.836;5.356;2023-02-22T02:50:54;6.00;99.90
40822;DHT22;26542;50.836;5.356;2023-02-22T02:53:26;6.00;99.90
40822;DHT22;26542;50.836;5.356;2023-02-22T02:55:54;5.90;99.90
40822;DHT22;26542;50.836;5.356;2023-02-22T02:58:22;6.00;99.90
40822;DHT22;26542;50.836;5.356;2023-02-22T03:00:56;6.00;99.90
40822;DHT22;26542;50.836;5.356;2023-02-22T03:03:50;5.90;99.90
40822;DHT22;26542;50.836;5.356;2023-02-22T03:07:02;5.90;99.90
40822;DHT22;26542;50.836;5.356;2023-02-22T03:14:51;5.80;99.90
40822;DHT22;26542;50.836;5.356;2023-02-22T03:17:35;5.80;99.90
40822;DHT22;26542;50.836;5.356;2023-02-22T03:20:10;5.60;99.90
40822;DHT22;26542;50.836;5.356;2023-02-22T03:22:44;5.60;99.90
40822;DHT22;26542;50.836;5.356;2023-02-22T03:25:19;5.60;99.90
40822;DHT22;26542;50.836;5.356;2023-02-22T03:27:50;5.60;99.90
40822;DHT22;26542;50.836;5.356;2023-02-22T03:30:21;5.60;99.90
40822;DHT22;26542;50.836;5.356;2023-02-22T03:32:59;5.60;99.90
40822;DHT22;26542;50.836;5.356;2023-02-22T03:35:30;5.70;99.90
40822;DHT22;26542;50.836;5.356;2023-02-22T03:38:02;5.70;99.90
40822;DHT22;26542;50.836;5.356;2023-02-22T03:40:41;5.60;99.90
40822;DHT22;26542;50.836;5.356;2023-02-22T03:43:23;5.60;99.90
40822;DHT22;26542;50.836;5.356;2023-02-22T03:45:50;5.50;99.90
40822;DHT22;26542;50.836;5.356;2023-02-22T03:48:22;5.40;99.90
40822;DHT22;26542;50.836;5.356;2023-02-22T03:50:49;5.40;99.90
40822;DHT22;26542;50.836;5.356;2023-02-22T03:53:17;5.40;99.90
40822;DHT22;26542;50.836;5.356;2023-02-22T03:55:45;5.50;99.90
40822;DHT22;26542;50.836;5.356;2023-02-22T03:58:16;5.50;99.90
40822;DHT22;26542;50.836;5.356;2023-02-22T04:00:43;5.50;99.90
40822;DHT22;26542;50.836;5.356;2023-02-22T04:03:09;5.50;99.90
40822;DHT22;26542;50.836;5.356;2023-02-22T04:05:35;5.50;99.90
40822;DHT22;26542;50.836;5.356;2023-02-22T04:08:01;5.50;99.90
40822;DHT22;26542;50.836;5.356;2023-02-22T04:10:26;5.50;99.90
40822;DHT22;26542;50.836;5.356;2023-02-22T04:12:52;5.50;99.90
40822;DHT22;26542;50.836;5.356;2023-02-22T04:15:21;5.50;99.90
40822;DHT22;26542;50.836;5.356;2023-02-22T04:17:47;5.50;99.90
40822;DHT22;26542;50.836;5.356;2023-02-22T04:20:14;5.40;99.90
40822;DHT22;26542;50.836;5.356;2023-02-22T04:22:46;5.50;99.90
40822;DHT22;26542;50.836;5.356;2023-02-22T04:25:13;5.30;99.90
40822;DHT22;26542;50.836;5.356;2023-02-22T04:27:39;5.30;99.90
40822;DHT22;26542;50.836;5.356;2023-02-22T04:30:05;5.20;99.90
40822;DHT22;26542;50.836;5.356;2023-02-22T04:32:30;5.30;99.90
40822;DHT22;26542;50.836;5.356;2023-02-22T04:34:56;5.30;99.90
40822;DHT22;26542;50.836;5.356;2023-02-22T04:37:22;5.30;99.90
40822;DHT22;26542;50.836;5.356;2023-02-22T04:39:47;5.30;99.90
40822;DHT22;26542;50.836;5.356;2023-02-22T04:42:13;5.30;99.90
40822;DHT22;26542;50.836;5.356;2023-02-22T04:44:39;5.20;99.90
40822;DHT22;26542;50.836;5.356;2023-02-22T04:47:05;5.20;99.90
40822;DHT22;26542;50.836;5.356;2023-02-22T04:49:30;5.20;99.90
40822;DHT22;26542;50.836;5.356;2023-02-22T04:51:56;5.20;99.90
40822;DHT22;26542;50.836;5.356;2023-02-22T04:54:22;5.20;99.90
40822;DHT22;26542;50.836;5.356;2023-02-22T04:56:47;5.10;99.90
40822;DHT22;26542;50.836;5.356;2023-02-22T04:59:13;5.20;99.90
40822;DHT22;26542;50.836;5.356;2023-02-22T05:01:39;5.20;99.90
40822;DHT22;26542;50.836;5.356;2023-02-22T05:04:05;5.30;99.90
40822;DHT22;26542;50.836;5.356;2023-02-22T05:06:31;5.20;99.90
40822;DHT22;26542;50.836;5.356;2023-02-22T05:08:57;5.10;99.90
40822;DHT22;26542;50.836;5.356;2023-02-22T05:11:23;5.10;99.90
40822;DHT22;26542;50.836;5.356;2023-02-22T05:13:49;5.10;99.90
40822;DHT22;26542;50.836;5.356;2023-02-22T05:16:15;5.20;99.90
40822;DHT22;26542;50.836;5.356;2023-02-22T05:18:41;5.20;99.90
40822;DHT22;26542;50.836;5.356;2023-02-22T05:21:06;5.10;99.90
40822;DHT22;26542;50.836;5.356;2023-02-22T05:23:33;5.20;99.90
40822;DHT22;26542;50.836;5.356;2023-02-22T05:25:59;5.10;99.90
40822;DHT22;26542;50.836;5.356;2023-02-22T05:28:25;5.10;99.90
40822;DHT22;26542;50.836;5.356;2023-02-22T05:30:51;5.10;99.90
40822;DHT22;26542;50.836;5.356;2023-02-22T05:33:17;5.10;99.90
40822;DHT22;26542;50.836;5.356;2023-02-22T05:35:43;5.10;99.90
40822;DHT22;26542;50.836;5.356;2023-02-22T05:38:11;5.10;99.90
40822;DHT22;26542;50.836;5.356;2023-02-22T05:40:40;5.00;99.90
40822;DHT22;26542;50.836;5.356;2023-02-22T05:43:06;5.00;99.90
40822;DHT22;26542;50.836;5.356;2023-02-22T05:45:32;5.00;99.90
40822;DHT22;26542;50.836;5.356;2023-02-22T05:47:59;5.10;99.90
40822;DHT22;26542;50.836;5.356;2023-02-22T05:50:25;5.10;99.90
40822;DHT22;26542;50.836;5.356;2023-02-22T05:52:51;5.10;99.90
40822;DHT22;26542;50.836;5.356;2023-02-22T05:55:19;5.00;99.90
40822;DHT22;26542;50.836;5.356;2023-02-22T05:57:45;5.10;99.90
40822;DHT22;26542;50.836;5.356;2023-02-22T06:00:23;5.10;99.90
40822;DHT22;26542;50.836;5.356;2023-02-22T06:03:00;5.20;99.90
40822;DHT22;26542;50.836;5.356;2023-02-22T06:05:27;5.10;99.90
40822;DHT22;26542;50.836;5.356;2023-02-22T06:07:54;5.10;99.90
40822;DHT22;26542;50.836;5.356;2023-02-22T06:10:20;5.10;99.90
40822;DHT22;26542;50.836;5.356;2023-02-22T06:12:47;5.00;99.90
40822;DHT22;26542;50.836;5.356;2023-02-22T06:15:20;5.00;99.90
40822;DHT22;26542;50.836;5.356;2023-02-22T06:17:46;5.00;99.90
40822;DHT22;26542;50.836;5.356;2023-02-22T06:20:14;5.00;99.90
40822;DHT22;26542;50.836;5.356;2023-02-22T06:22:39;5.00;99.90
40822;DHT22;26542;50.836;5.356;2023-02-22T06:25:07;5.00;99.90
40822;DHT22;26542;50.836;5.356;2023-02-22T06:27:33;5.00;99.90
40822;DHT22;26542;50.836;5.356;2023-02-22T06:30:00;5.00;99.90
40822;DHT22;26542;50.836;5.356;2023-02-22T06:32:26;5.00;99.90
40822;DHT22;26542;50.836;5.356;2023-02-22T06:34:54;5.00;99.90
40822;DHT22;26542;50.836;5.356;2023-02-22T06:37:21;5.00;99.90
40822;DHT22;26542;50.836;5.356;2023-02-22T06:39:46;5.00;99.90
40822;DHT22;26542;50.836;5.356;2023-02-22T06:42:12;5.10;99.90
40822;DHT22;26542;50.836;5.356;2023-02-22T06:44:38;5.10;99.90
40822;DHT22;26542;50.836;5.356;2023-02-22T06:47:04;5.10;99.90
40822;DHT22;26542;50.836;5.356;2023-02-22T06:49:30;5.00;99.90
40822;DHT22;26542;50.836;5.356;2023-02-22T06:51:55;5.00;99.90
40822;DHT22;26542;50.836;5.356;2023-02-22T06:54:21;5.10;99.90
40822;DHT22;26542;50.836;5.356;2023-02-22T06:56:47;5.00;99.90
40822;DHT22;26542;50.836;5.356;2023-02-22T06:59:14;5.00;99.90
40822;DHT22;26542;50.836;5.356;2023-02-22T07:01:41;5.10;99.90
40822;DHT22;26542;50.836;5.356;2023-02-22T07:04:07;5.10;99.90
40822;DHT22;26542;50.836;5.356;2023-02-22T07:06:33;5.10;99.90
40822;DHT22;26542;50.836;5.356;2023-02-22T07:08:59;5.10;99.90
40822;DHT22;26542;50.836;5.356;2023-02-22T07:11:26;5.10;99.90
40822;DHT22;26542;50.836;5.356;2023-02-22T07:13:51;5.20;99.90
40822;DHT22;26542;50.836;5.356;2023-02-22T07:16:17;5.10;99.90
40822;DHT22;26542;50.836;5.356;2023-02-22T07:18:43;5.20;99.90
40822;DHT22;26542;50.836;5.356;2023-02-22T07:21:08;5.30;99.90
40822;DHT22;26542;50.836;5.356;2023-02-22T07:23:35;5.20;99.90
40822;DHT22;26542;50.836;5.356;2023-02-22T07:26:01;5.30;99.90
40822;DHT22;26542;50.836;5.356;2023-02-22T07:28:27;5.30;99.90
40822;DHT22;26542;50.836;5.356;2023-02-22T07:30:53;5.30;99.90
40822;DHT22;26542;50.836;5.356;2023-02-22T07:33:19;5.30;99.90
40822;DHT22;26542;50.836;5.356;2023-02-22T07:35:47;5.30;99.90
40822;DHT22;26542;50.836;5.356;2023-02-22T07:38:15;5.30;99.90
40822;DHT22;26542;50.836;5.356;2023-02-22T07:40:41;5.40;99.90
40822;DHT22;26542;50.836;5.356;2023-02-22T07:45:41;5.50;99.90
40822;DHT22;26542;50.836;5.356;2023-02-22T07:48:07;5.60;99.90
40822;DHT22;26542;50.836;5.356;2023-02-22T07:50:33;5.60;99.90
40822;DHT22;26542;50.836;5.356;2023-02-22T07:53:04;5.70;99.90
40822;DHT22;26542;50.836;5.356;2023-02-22T07:55:31;5.70;99.90
40822;DHT22;26542;50.836;5.356;2023-02-22T07:58:00;5.90;99.90
40822;DHT22;26542;50.836;5.356;2023-02-22T08:00:29;6.00;99.90
40822;DHT22;26542;50.836;5.356;2023-02-22T08:02:56;6.10;99.90
40822;DHT22;26542;50.836;5.356;2023-02-22T08:05:25;6.20;99.90
40822;DHT22;26542;50.836;5.356;2023-02-22T08:07:51;6.30;99.90
40822;DHT22;26542;50.836;5.356;2023-02-22T08:10:18;6.40;99.90
40822;DHT22;26542;50.836;5.356;2023-02-22T08:12:44;6.50;99.90
40822;DHT22;26542;50.836;5.356;2023-02-22T08:15:40;6.70;99.90
40822;DHT22;26542;50.836;5.356;2023-02-22T08:18:09;6.70;99.90
40822;DHT22;26542;50.836;5.356;2023-02-22T08:20:36;6.80;99.90
40822;DHT22;26542;50.836;5.356;2023-02-22T08:23:03;7.00;99.90
40822;DHT22;26542;50.836;5.356;2023-02-22T08:25:30;7.10;99.90
40822;DHT22;26542;50.836;5.356;2023-02-22T08:28:10;7.20;99.90
40822;DHT22;26542;50.836;5.356;2023-02-22T08:30:37;7.20;99.90
40822;DHT22;26542;50.836;5.356;2023-02-22T08:33:04;7.20;99.90
40822;DHT22;26542;50.836;5.356;2023-02-22T08:35:30;7.30;99.90
40822;DHT22;26542;50.836;5.356;2023-02-22T08:38:02;7.40;99.90
40822;DHT22;26542;50.836;5.356;2023-02-22T08:40:31;7.50;99.90
40822;DHT22;26542;50.836;5.356;2023-02-22T08:42:57;7.70;99.90
40822;DHT22;26542;50.836;5.356;2023-02-22T08:45:23;7.80;99.90
40822;DHT22;26542;50.836;5.356;2023-02-22T08:47:49;7.80;99.90
40822;DHT22;26542;50.836;5.356;2023-02-22T08:50:30;8.00;99.90
40822;DHT22;26542;50.836;5.356;2023-02-22T08:53:00;8.10;99.90
40822;DHT22;26542;50.836;5.356;2023-02-22T08:55:29;8.20;99.90
40822;DHT22;26542;50.836;5.356;2023-02-22T08:57:57;8.30;99.90
40822;DHT22;26542;50.836;5.356;2023-02-22T09:00:22;8.40;99.90
40822;DHT22;26542;50.836;5.356;2023-02-22T09:02:54;8.50;99.90
40822;DHT22;26542;50.836;5.356;2023-02-22T09:05:19;8.60;99.90
40822;DHT22;26542;50.836;5.356;2023-02-22T09:07:45;8.90;99.90
40822;DHT22;26542;50.836;5.356;2023-02-22T09:10:21;9.00;99.90
40822;DHT22;26542;50.836;5.356;2023-02-22T09:12:50;9.20;99.90
40822;DHT22;26542;50.836;5.356;2023-02-22T09:15:16;9.40;99.90
40822;DHT22;26542;50.836;5.356;2023-02-22T09:17:42;9.60;99.90
40822;DHT22;26542;50.836;5.356;2023-02-22T09:20:08;9.80;99.90
40822;DHT22;26542;50.836;5.356;2023-02-22T09:22:44;10.00;99.90
40822;DHT22;26542;50.836;5.356;2023-02-22T09:25:10;10.20;99.90
40822;DHT22;26542;50.836;5.356;2023-02-22T09:27:35;10.50;99.90
40822;DHT22;26542;50.836;5.356;2023-02-22T09:30:03;10.70;99.90
40822;DHT22;26542;50.836;5.356;2023-02-22T09:32:29;10.80;99.90
40822;DHT22;26542;50.836;5.356;2023-02-22T09:34:55;10.90;99.90
40822;DHT22;26542;50.836;5.356;2023-02-22T09:37:21;10.90;99.90
40822;DHT22;26542;50.836;5.356;2023-02-22T09:39:47;11.00;99.90
40822;DHT22;26542;50.836;5.356;2023-02-22T09:42:24;11.10;99.90
40822;DHT22;26542;50.836;5.356;2023-02-22T09:45:07;11.20;99.90
40822;DHT22;26542;50.836;5.356;2023-02-22T09:47:58;11.20;99.90
40822;DHT22;26542;50.836;5.356;2023-02-22T09:50:27;11.40;99.90
40822;DHT22;26542;50.836;5.356;2023-02-22T09:53:01;11.50;99.90
40822;DHT22;26542;50.836;5.356;2023-02-22T09:56:05;11.60;99.90
40822;DHT22;26542;50.836;5.356;2023-02-22T09:58:47;11.60;99.90
40822;DHT22;26542;50.836;5.356;2023-02-22T10:01:42;11.70;99.90
40822;DHT22;26542;50.836;5.356;2023-02-22T10:04:22;11.80;99.90
40822;DHT22;26542;50.836;5.356;2023-02-22T10:09:25;11.90;99.90
40822;DHT22;26542;50.836;5.356;2023-02-22T10:12:01;12.00;99.90
40822;DHT22;26542;50.836;5.356;2023-02-22T10:23:16;12.60;99.90
40822;DHT22;26542;50.836;5.356;2023-02-22T10:25:49;12.70;99.90
40822;DHT22;26542;50.836;5.356;2023-02-22T10:28:26;12.90;99.90
40822;DHT22;26542;50.836;5.356;2023-02-22T10:31:04;12.90;99.90
40822;DHT22;26542;50.836;5.356;2023-02-22T10:33:37;12.90;99.90
40822;DHT22;26542;50.836;5.356;2023-02-22T10:36:04;13.10;99.90
40822;DHT22;26542;50.836;5.356;2023-02-22T10:38:34;13.30;99.90
40822;DHT22;26542;50.836;5.356;2023-02-22T10:43:39;13.40;99.90
40822;DHT22;26542;50.836;5.356;2023-02-22T10:46:07;13.50;99.90
40822;DHT22;26542;50.836;5.356;2023-02-22T10:48:37;13.60;99.90
40822;DHT22;26542;50.836;5.356;2023-02-22T10:51:07;13.80;99.90
40822;DHT22;26542;50.836;5.356;2023-02-22T10:53:33;13.80;99.90
40822;DHT22;26542;50.836;5.356;2023-02-22T11:01:37;13.90;99.90
40822;DHT22;26542;50.836;5.356;2023-02-22T11:04:15;13.90;99.90
40822;DHT22;26542;50.836;5.356;2023-02-22T11:06:44;14.00;99.90
40822;DHT22;26542;50.836;5.356;2023-02-22T11:09:15;14.10;99.90
40822;DHT22;26542;50.836;5.356;2023-02-22T11:11:44;14.10;99.90
40822;DHT22;26542;50.836;5.356;2023-02-22T11:14:25;14.20;99.90
40822;DHT22;26542;50.836;5.356;2023-02-22T11:16:55;14.30;99.90
40822;DHT22;26542;50.836;5.356;2023-02-22T11:19:25;14.30;99.90
40822;DHT22;26542;50.836;5.356;2023-02-22T11:21:55;14.30;99.90
40822;DHT22;26542;50.836;5.356;2023-02-22T11:24:22;14.30;99.90
40822;DHT22;26542;50.836;5.356;2023-02-22T11:26:54;14.30;99.90
40822;DHT22;26542;50.836;5.356;2023-02-22T11:29:32;14.50;99.90
40822;DHT22;26542;50.836;5.356;2023-02-22T11:32:15;14.60;99.90
40822;DHT22;26542;50.836;5.356;2023-02-22T11:34:46;14.50;99.90
40822;DHT22;26542;50.836;5.356;2023-02-22T11:42:29;14.20;99.90
40822;DHT22;26542;50.836;5.356;2023-02-22T11:47:35;14.40;99.90
40822;DHT22;26542;50.836;5.356;2023-02-22T11:50:01;14.20;99.90
40822;DHT22;26542;50.836;5.356;2023-02-22T11:52:41;14.10;99.90
40822;DHT22;26542;50.836;5.356;2023-02-22T11:55:23;14.00;99.90
40822;DHT22;26542;50.836;5.356;2023-02-22T11:58:25;13.90;99.90
40822;DHT22;26542;50.836;5.356;2023-02-22T12:04:14;13.70;99.90
40822;DHT22;26542;50.836;5.356;2023-02-22T12:15:22;13.40;99.90
40822;DHT22;26542;50.836;5.356;2023-02-22T12:18:00;13.20;99.90
40822;DHT22;26542;50.836;5.356;2023-02-22T12:20:39;13.20;99.90
40822;DHT22;26542;50.836;5.356;2023-02-22T12:23:27;13.10;99.90
40822;DHT22;26542;50.836;5.356;2023-02-22T12:25:59;13.10;99.90
40822;DHT22;26542;50.836;5.356;2023-02-22T12:28:57;13.00;99.90
40822;DHT22;26542;50.836;5.356;2023-02-22T12:32:04;13.10;99.90
40822;DHT22;26542;50.836;5.356;2023-02-22T12:34:30;13.20;99.90
40822;DHT22;26542;50.836;5.356;2023-02-22T12:37:15;13.30;99.90
40822;DHT22;26542;50.836;5.356;2023-02-22T12:40:02;13.30;99.90
40822;DHT22;26542;50.836;5.356;2023-02-22T12:45:16;13.40;99.90
40822;DHT22;26542;50.836;5.356;2023-02-22T12:47:52;13.30;99.90
40822;DHT22;26542;50.836;5.356;2023-02-22T12:50:22;13.30;99.90
40822;DHT22;26542;50.836;5.356;2023-02-22T12:55:31;13.20;99.90
40822;DHT22;26542;50.836;5.356;2023-02-22T13:06:04;12.90;99.90
40822;DHT22;26542;50.836;5.356;2023-02-22T13:11:30;13.10;99.90
40822;DHT22;26542;50.836;5.356;2023-02-22T13:21:42;13.00;99.90
40822;DHT22;26542;50.836;5.356;2023-02-22T13:27:19;12.80;99.90
40822;DHT22;26542;50.836;5.356;2023-02-22T13:29:48;12.80;99.90
40822;DHT22;26542;50.836;5.356;2023-02-22T13:32:39;12.70;99.90
40822;DHT22;26542;50.836;5.356;2023-02-22T13:43:28;12.70;99.90
40822;DHT22;26542;50.836;5.356;2023-02-22T13:52:08;12.70;99.90
40822;DHT22;26542;50.836;5.356;2023-02-22T13:54:47;12.60;99.90
40822;DHT22;26542;50.836;5.356;2023-02-22T13:59:44;12.50;99.90
40822;DHT22;26542;50.836;5.356;2023-02-22T14:02:32;12.40;99.90
40822;DHT22;26542;50.836;5.356;2023-02-22T14:05:45;12.30;99.90
40822;DHT22;26542;50.836;5.356;2023-02-22T14:10:57;12.30;99.90
40822;DHT22;26542;50.836;5.356;2023-02-22T14:13:27;12.30;99.90
40822;DHT22;26542;50.836;5.356;2023-02-22T14:16:18;12.20;99.90
40822;DHT22;26542;50.836;5.356;2023-02-22T14:18:46;12.30;99.90
40822;DHT22;26542;50.836;5.356;2023-02-22T14:23:49;12.50;99.90
40822;DHT22;26542;50.836;5.356;2023-02-22T14:29:13;12.40;99.90
40822;DHT22;26542;50.836;5.356;2023-02-22T14:34:13;12.50;99.90
40822;DHT22;26542;50.836;5.356;2023-02-22T14:37:16;12.30;99.90
40822;DHT22;26542;50.836;5.356;2023-02-22T14:42:33;12.40;99.90
40822;DHT22;26542;50.836;5.356;2023-02-22T14:45:26;12.30;99.90
40822;DHT22;26542;50.836;5.356;2023-02-22T14:50:43;12.20;99.90
40822;DHT22;26542;50.836;5.356;2023-02-22T14:56:08;12.20;99.90
40822;DHT22;26542;50.836;5.356;2023-02-22T14:59:22;12.30;99.90
40822;DHT22;26542;50.836;5.356;2023-02-22T15:02:06;12.40;99.90
40822;DHT22;26542;50.836;5.356;2023-02-22T15:04:35;12.30;99.90
40822;DHT22;26542;50.836;5.356;2023-02-22T15:07:18;12.20;99.90
40822;DHT22;26542;50.836;5.356;2023-02-22T15:09:44;12.20;99.90
40822;DHT22;26542;50.836;5.356;2023-02-22T15:12:28;12.20;99.90
40822;DHT22;26542;50.836;5.356;2023-02-22T15:15:18;12.20;99.90
40822;DHT22;26542;50.836;5.356;2023-02-22T15:17:54;12.20;99.90
40822;DHT22;26542;50.836;5.356;2023-02-22T15:20:21;12.20;99.90
40822;DHT22;26542;50.836;5.356;2023-02-22T15:22:48;12.10;99.90
40822;DHT22;26542;50.836;5.356;2023-02-22T15:25:24;12.20;99.90
40822;DHT22;26542;50.836;5.356;2023-02-22T15:27:50;12.20;99.90
40822;DHT22;26542;50.836;5.356;2023-02-22T15:32:42;12.20;99.90
40822;DHT22;26542;50.836;5.356;2023-02-22T15:35:27;12.20;99.90
40822;DHT22;26542;50.836;5.356;2023-02-22T15:40:38;12.30;99.90
40822;DHT22;26542;50.836;5.356;2023-02-22T15:43:15;12.20;99.90
40822;DHT22;26542;50.836;5.356;2023-02-22T15:45:41;12.20;99.90
40822;DHT22;26542;50.836;5.356;2023-02-22T15:48:10;12.10;99.90
40822;DHT22;26542;50.836;5.356;2023-02-22T15:50:36;12.10;99.90
40822;DHT22;26542;50.836;5.356;2023-02-22T15:53:26;12.00;99.90
40822;DHT22;26542;50.836;5.356;2023-02-22T15:55:57;12.00;99.90
40822;DHT22;26542;50.836;5.356;2023-02-22T15:58:25;12.20;99.90
40822;DHT22;26542;50.836;5.356;2023-02-22T16:01:11;12.10;99.90
40822;DHT22;26542;50.836;5.356;2023-02-22T16:03:44;11.90;99.90
40822;DHT22;26542;50.836;5.356;2023-02-22T16:06:35;12.00;99.90
40822;DHT22;26542;50.836;5.356;2023-02-22T16:09:19;12.00;99.90
40822;DHT22;26542;50.836;5.356;2023-02-22T16:11:47;12.00;99.90
40822;DHT22;26542;50.836;5.356;2023-02-22T16:14:25;11.80;99.90
40822;DHT22;26542;50.836;5.356;2023-02-22T16:17:10;11.90;99.90
40822;DHT22;26542;50.836;5.356;2023-02-22T16:19:41;11.90;99.90
40822;DHT22;26542;50.836;5.356;2023-02-22T16:22:30;11.90;99.90
40822;DHT22;26542;50.836;5.356;2023-02-22T16:27:52;11.90;99.90
40822;DHT22;26542;50.836;5.356;2023-02-22T16:30:35;11.80;99.90
40822;DHT22;26542;50.836;5.356;2023-02-22T16:33:08;11.80;99.90
40822;DHT22;26542;50.836;5.356;2023-02-22T16:35:38;11.80;99.90
40822;DHT22;26542;50.836;5.356;2023-02-22T16:38:06;11.80;99.90
40822;DHT22;26542;50.836;5.356;2023-02-22T16:40:44;11.70;99.90
40822;DHT22;26542;50.836;5.356;2023-02-22T16:43:13;11.70;99.90
40822;DHT22;26542;50.836;5.356;2023-02-22T16:45:39;11.70;99.90
40822;DHT22;26542;50.836;5.356;2023-02-22T16:48:20;11.70;99.90
40822;DHT22;26542;50.836;5.356;2023-02-22T16:50:51;11.70;99.90
40822;DHT22;26542;50.836;5.356;2023-02-22T16:53:19;11.70;99.90
40822;DHT22;26542;50.836;5.356;2023-02-22T16:55:47;11.60;99.90
40822;DHT22;26542;50.836;5.356;2023-02-22T16:58:14;11.50;99.90
40822;DHT22;26542;50.836;5.356;2023-02-22T17:00:40;11.50;99.90
40822;DHT22;26542;50.836;5.356;2023-02-22T17:03:13;11.50;99.90
40822;DHT22;26542;50.836;5.356;2023-02-22T17:05:39;11.50;99.90
40822;DHT22;26542;50.836;5.356;2023-02-22T17:08:05;11.50;99.90
40822;DHT22;26542;50.836;5.356;2023-02-22T17:10:31;11.30;99.90
40822;DHT22;26542;50.836;5.356;2023-02-22T17:12:57;11.40;99.90
40822;DHT22;26542;50.836;5.356;2023-02-22T17:15:28;11.40;99.90
40822;DHT22;26542;50.836;5.356;2023-02-22T17:17:54;11.40;99.90
40822;DHT22;26542;50.836;5.356;2023-02-22T17:20:21;11.40;99.90
40822;DHT22;26542;50.836;5.356;2023-02-22T17:23:01;11.40;99.90
40822;DHT22;26542;50.836;5.356;2023-02-22T17:25:31;11.40;99.90
40822;DHT22;26542;50.836;5.356;2023-02-22T17:27:57;11.30;99.90
40822;DHT22;26542;50.836;5.356;2023-02-22T17:30:23;11.30;99.90
40822;DHT22;26542;50.836;5.356;2023-02-22T17:32:50;11.30;99.90
40822;DHT22;26542;50.836;5.356;2023-02-22T17:35:20;11.30;99.90
40822;DHT22;26542;50.836;5.356;2023-02-22T17:37:48;11.30;99.90
40822;DHT22;26542;50.836;5.356;2023-02-22T17:40:15;11.20;99.90
40822;DHT22;26542;50.836;5.356;2023-02-22T17:42:42;11.20;99.90
40822;DHT22;26542;50.836;5.356;2023-02-22T17:45:10;11.30;99.90
40822;DHT22;26542;50.836;5.356;2023-02-22T17:47:39;11.30;99.90
40822;DHT22;26542;50.836;5.356;2023-02-22T17:50:07;11.30;99.90
40822;DHT22;26542;50.836;5.356;2023-02-22T17:52:33;11.30;99.90
40822;DHT22;26542;50.836;5.356;2023-02-22T17:54:59;11.30;99.90
40822;DHT22;26542;50.836;5.356;2023-02-22T17:57:25;11.40;99.90
40822;DHT22;26542;50.836;5.356;2023-02-22T17:59:51;11.40;99.90
40822;DHT22;26542;50.836;5.356;2023-02-22T18:02:16;11.40;99.90
40822;DHT22;26542;50.836;5.356;2023-02-22T18:04:42;11.40;99.90
40822;DHT22;26542;50.836;5.356;2023-02-22T18:07:08;11.30;99.90
40822;DHT22;26542;50.836;5.356;2023-02-22T18:09:33;11.20;99.90
40822;DHT22;26542;50.836;5.356;2023-02-22T18:12:00;11.30;99.90
40822;DHT22;26542;50.836;5.356;2023-02-22T18:14:26;11.30;99.90
40822;DHT22;26542;50.836;5.356;2023-02-22T18:16:52;11.30;99.90
40822;DHT22;26542;50.836;5.356;2023-02-22T18:19:17;11.20;99.90
40822;DHT22;26542;50.836;5.356;2023-02-22T18:21:46;11.30;99.90
40822;DHT22;26542;50.836;5.356;2023-02-22T18:24:12;11.30;99.90